Terminal Aerodrome Forecast
Issued by NWS Billings, MT

Home | Current Version | Previous Version | Text Only | Print | Product List | Glossary Off
Versions: 1 2 3 4 5 6 7 8 9 10 11 12 13 14 15 16

000
FTUS45 KBYZ 181510 AAA
TAFMLS
TAF AMD
KMLS 181510Z 1815/1912 35015KT 6SM -SN OVC025
      TEMPO 1815/1817 5SM -SN OVC015
     FM181700 02015KT 3SM -SN BR OVC012
     FM190200 02010KT 3SM -SN BR BKN006 OVC012=

USA.gov is the U.S. government's official web portal to all federal, state and local government web resources and services.